Terminal Aerodrome Forecast
Issued by NWS Cleveland, OH

Home | Current Version | Previous Version | Text Only | Print | Product List | Glossary Off
Versions: 1 2 3 4 5 6 7 8 9 10 11 12 13 14 15 16 17 18

000
FTUS41 KCLE 271100
TAFMFD
TAF
KMFD 271140Z 2712/2812 00000KT P6SM VCFG SCT250
     FM271300 08005KT P6SM BKN250
     FM280200 VRB03KT P6SM SCT250
      TEMPO 2808/2812 4SM BR=

USA.gov is the U.S. government's official web portal to all federal, state and local government web resources and services.